createdAt,value
2022-09-01T00:02:55.912Z,0.93
2022-09-01T00:05:58.622Z,1.00
2022-09-01T00:09:04.440Z,0.87
2022-09-01T00:12:09.508Z,1.27
2022-09-01T00:15:14.038Z,0.90
2022-09-01T00:18:16.681Z,0.90
2022-09-01T00:21:21.687Z,1.00
2022-09-01T00:24:25.992Z,0.80
2022-09-01T00:27:30.631Z,0.90
2022-09-01T00:30:35.102Z,1.00
2022-09-01T00:33:38.743Z,0.80
2022-09-01T00:36:41.404Z,1.00
2022-09-01T00:39:44.009Z,1.00
2022-09-01T00:42:48.895Z,0.97
2022-09-01T00:45:52.869Z,0.80
2022-09-01T00:49:01.967Z,1.00
2022-09-01T00:52:09.133Z,0.90
2022-09-01T00:55:15.913Z,0.80
2022-09-01T00:58:19.612Z,0.90
2022-09-01T01:01:24.267Z,0.90
2022-09-01T01:04:26.953Z,0.90
2022-09-01T01:07:29.941Z,0.87
2022-09-01T01:10:35.830Z,1.00
2022-09-01T01:13:51.035Z,1.03
2022-09-01T01:16:55.276Z,0.80
2022-09-01T01:20:17.075Z,0.90
2022-09-01T01:23:28.257Z,0.90
2022-09-01T01:26:32.229Z,0.93
2022-09-01T01:29:37.118Z,0.90
2022-09-01T01:32:43.060Z,1.00
2022-09-01T01:35:47.032Z,1.10
2022-09-01T01:38:50.528Z,1.00
2022-09-01T01:41:58.704Z,0.90
2022-09-01T01:45:01.276Z,1.10
2022-09-01T01:48:08.535Z,0.97
2022-09-01T01:51:13.865Z,1.00
2022-09-01T01:54:19.903Z,1.13
2022-09-01T01:57:23.860Z,1.00
2022-09-01T02:00:30.971Z,1.13
2022-09-01T02:03:38.520Z,1.07
2022-09-01T02:06:44.954Z,1.10
2022-09-01T02:09:48.212Z,0.97
2022-09-01T02:12:52.445Z,1.00
2022-09-01T02:15:56.938Z,1.07
2022-09-01T02:19:01.193Z,0.83
2022-09-01T02:22:03.815Z,1.03
2022-09-01T02:25:07.027Z,1.10
2022-09-01T02:28:15.880Z,0.97
2022-09-01T02:31:20.936Z,0.90
2022-09-01T02:34:25.849Z,1.07
2022-09-01T02:37:29.725Z,1.07
2022-09-01T02:40:33.387Z,1.10
2022-09-01T02:43:38.618Z,1.10
2022-09-01T02:46:42.977Z,1.00
2022-09-01T02:49:46.710Z,1.00
2022-09-01T02:52:49.944Z,1.00
2022-09-01T02:55:52.949Z,1.10
2022-09-01T02:58:56.845Z,0.93
2022-09-01T03:01:59.578Z,0.90
2022-09-01T03:05:02.221Z,1.00
2022-09-01T03:08:10.374Z,1.00
2022-09-01T03:11:13.515Z,0.70
2022-09-01T03:14:17.996Z,1.00
2022-09-01T03:17:21.597Z,1.00
2022-09-01T03:20:24.393Z,1.07
2022-09-01T03:23:28.061Z,1.20
2022-09-01T03:26:31.842Z,1.13
2022-09-01T03:29:36.964Z,1.00
2022-09-01T03:32:39.799Z,1.70
2022-09-01T03:35:42.588Z,1.10
2022-09-01T03:38:46.906Z,1.10
2022-09-01T03:41:49.730Z,1.00
2022-09-01T03:44:53.630Z,1.10
2022-09-01T03:47:57.153Z,1.00
2022-09-01T03:51:02.727Z,1.03
2022-09-01T03:54:05.747Z,1.00
2022-09-01T03:57:10.031Z,1.10
2022-09-01T04:00:20.632Z,1.10
2022-09-01T04:03:29.119Z,1.00
2022-09-01T04:06:33.685Z,1.00
2022-09-01T04:09:36.569Z,1.10
2022-09-01T04:12:39.677Z,1.10
2022-09-01T04:15:43.778Z,1.07
2022-09-01T04:18:48.953Z,1.00
2022-09-01T04:21:52.199Z,1.20
2022-09-01T04:24:54.848Z,1.17
2022-09-01T04:27:58.686Z,1.07
2022-09-01T04:31:05.876Z,1.00
2022-09-01T04:34:13.162Z,1.00
2022-09-01T04:37:19.077Z,1.20
2022-09-01T04:40:23.769Z,1.03
2022-09-01T04:43:30.146Z,1.10
2022-09-01T04:46:36.593Z,1.00
2022-09-01T04:49:39.175Z,1.00
2022-09-01T04:52:43.023Z,1.30
2022-09-01T04:55:47.078Z,1.03
2022-09-01T04:58:54.034Z,1.03
2022-09-01T05:02:00.643Z,1.40
2022-09-01T05:05:03.660Z,1.57
2022-09-01T05:08:06.863Z,1.20
2022-09-01T05:11:09.477Z,1.10
2022-09-01T05:14:12.489Z,1.40
2022-09-01T05:17:18.647Z,1.37
2022-09-01T05:20:21.701Z,1.20
2022-09-01T05:23:26.536Z,1.20
2022-09-01T05:26:31.646Z,1.13
2022-09-01T05:29:36.156Z,1.10
2022-09-01T05:32:40.387Z,1.20
2022-09-01T05:35:55.399Z,1.10
2022-09-01T05:38:59.045Z,1.40
2022-09-01T05:42:01.923Z,1.30
2022-09-01T05:45:05.041Z,1.00
2022-09-01T05:48:09.403Z,1.30
2022-09-01T05:51:40.379Z,1.30
2022-09-01T05:54:37.971Z,1.33
2022-09-01T05:57:40.806Z,1.03
2022-09-01T06:00:44.070Z,1.10
2022-09-01T06:03:49.358Z,1.13
2022-09-01T06:07:10.228Z,1.27
2022-09-01T06:10:16.106Z,1.10
2022-09-01T06:13:21.822Z,1.67
2022-09-01T06:16:29.047Z,1.47
2022-09-01T06:19:36.998Z,1.00
2022-09-01T06:22:40.992Z,1.10
2022-09-01T06:25:46.810Z,1.20
2022-09-01T06:28:50.615Z,1.20
2022-09-01T06:31:53.217Z,1.00
2022-09-01T06:35:00.359Z,1.10
2022-09-01T06:38:03.050Z,1.20
2022-09-01T06:41:12.835Z,1.00
2022-09-01T06:44:15.451Z,1.17
2022-09-01T06:47:19.385Z,1.50
2022-09-01T06:53:51.106Z,1.30
2022-09-01T06:56:53.899Z,1.00
2022-09-01T06:59:56.960Z,1.10
2022-09-01T07:02:59.818Z,1.20
2022-09-01T07:06:08.903Z,1.00
2022-09-01T07:09:21.541Z,1.13
2022-09-01T07:12:25.742Z,0.80
2022-09-01T07:18:58.696Z,1.43
2022-09-01T07:22:35.230Z,1.07
2022-09-01T07:25:35.721Z,1.80
2022-09-01T07:28:50.652Z,1.60
2022-09-01T07:35:22.303Z,0.73
2022-09-01T07:45:32.391Z,0.90
2022-09-01T07:48:36.482Z,0.70
2022-09-01T07:51:59.626Z,0.73
2022-09-01T07:55:03.922Z,0.90
2022-09-01T07:58:06.517Z,0.80
2022-09-01T08:01:11.281Z,0.60
2022-09-01T08:04:25.557Z,0.90
2022-09-01T08:07:28.220Z,0.70
2022-09-01T08:10:32.193Z,0.70
2022-09-01T08:13:41.189Z,1.40
2022-09-01T08:16:52.238Z,0.80
2022-09-01T08:19:56.393Z,0.60
2022-09-01T08:22:59.008Z,0.70
2022-09-01T08:26:07.160Z,0.70
2022-09-01T08:29:09.931Z,0.77
2022-09-01T08:32:13.063Z,0.70
2022-09-01T08:35:16.202Z,1.17
2022-09-01T08:38:19.488Z,0.80
2022-09-01T08:41:35.176Z,0.60
2022-09-01T08:44:45.815Z,0.77
2022-09-01T08:48:28.735Z,0.60
2022-09-01T08:51:20.755Z,1.50
2022-09-01T08:54:29.709Z,1.17
2022-09-01T08:57:39.413Z,0.65
2022-09-01T09:00:51.411Z,2.35
2022-09-01T09:04:09.172Z,0.70
2022-09-01T09:07:18.366Z,0.70
2022-09-01T09:10:25.146Z,0.90
2022-09-01T09:13:39.579Z,0.77
2022-09-01T09:16:43.874Z,0.70
2022-09-01T09:19:46.933Z,0.80
2022-09-01T09:22:49.931Z,0.70
2022-09-01T09:25:52.548Z,0.60
2022-09-01T09:28:56.725Z,0.73
2022-09-01T09:32:05.557Z,0.70
2022-09-01T09:35:21.827Z,0.70
2022-09-01T09:38:30.256Z,0.70
2022-09-01T09:41:32.880Z,1.20
2022-09-01T09:44:43.782Z,0.95
2022-09-01T09:47:47.707Z,0.82
2022-09-01T09:50:50.597Z,1.10
2022-09-01T09:53:55.580Z,0.70
2022-09-01T09:57:12.583Z,0.75
2022-09-01T10:00:24.016Z,0.98
2022-09-01T10:03:37.428Z,0.88
2022-09-01T10:06:45.195Z,0.70
2022-09-01T10:09:49.128Z,0.70
2022-09-01T10:12:53.836Z,0.85
2022-09-01T10:15:59.811Z,0.82
2022-09-01T10:19:03.284Z,0.80
2022-09-01T10:22:06.593Z,0.60
2022-09-01T10:25:14.835Z,0.82
2022-09-01T10:28:24.277Z,0.80
2022-09-01T10:31:32.856Z,0.70
2022-09-01T10:34:41.969Z,0.77
2022-09-01T10:37:44.892Z,0.65
2022-09-01T10:41:07.008Z,0.70
2022-09-01T10:44:11.667Z,0.60
2022-09-01T10:47:29.557Z,0.70
2022-09-01T10:50:36.563Z,0.70
2022-09-01T10:53:40.708Z,0.80
2022-09-01T10:56:51.747Z,0.65
2022-09-01T10:59:57.797Z,1.00
2022-09-01T11:03:47.841Z,0.80
2022-09-01T11:07:29.686Z,1.23
2022-09-01T11:10:42.080Z,0.80
2022-09-01T11:13:50.137Z,0.93
2022-09-01T11:17:16.203Z,0.60
2022-09-01T11:20:27.379Z,1.00
2022-09-01T11:23:31.736Z,0.82
2022-09-01T11:26:48.842Z,0.98
2022-09-01T11:29:55.581Z,1.00
2022-09-01T11:33:03.072Z,0.80
2022-09-01T11:36:15.260Z,0.70
2022-09-01T11:39:30.901Z,1.00
2022-09-01T11:42:40.513Z,0.95
2022-09-01T11:46:03.482Z,0.70
2022-09-01T11:49:09.790Z,0.80
2022-09-01T11:52:16.958Z,0.70
2022-09-01T11:55:30.171Z,0.73
2022-09-01T11:58:39.129Z,0.70
2022-09-01T12:01:42.130Z,0.90
2022-09-01T12:04:44.760Z,0.80
2022-09-01T12:07:48.926Z,1.00
2022-09-01T12:10:51.644Z,0.70
2022-09-01T12:14:00.789Z,0.60
2022-09-01T12:17:06.478Z,0.70
2022-09-01T12:20:29.699Z,0.75
2022-09-01T12:23:36.171Z,0.70
2022-09-01T12:26:40.484Z,0.80
2022-09-01T12:29:43.802Z,0.77
2022-09-01T12:32:47.228Z,0.70
2022-09-01T12:35:49.893Z,0.90
2022-09-01T12:38:55.335Z,0.75
2022-09-01T12:42:14.868Z,1.20
2022-09-01T12:45:41.119Z,0.73
2022-09-01T12:48:44.723Z,0.80
2022-09-01T12:51:48.565Z,0.70
2022-09-01T12:54:54.371Z,0.60
2022-09-01T12:57:58.773Z,0.85
2022-09-01T13:01:05.740Z,0.80
2022-09-01T13:04:25.113Z,0.60
2022-09-01T13:07:27.680Z,0.70
2022-09-01T13:10:35.617Z,0.70
2022-09-01T13:13:38.208Z,0.70
2022-09-01T13:16:40.835Z,0.88
2022-09-01T13:19:43.540Z,1.00
2022-09-01T13:22:46.883Z,0.70
2022-09-01T13:25:51.381Z,0.60
2022-09-01T13:28:54.188Z,0.80
2022-09-01T13:35:22.119Z,0.60
2022-09-01T13:38:24.747Z,0.80
2022-09-01T13:41:29.094Z,1.00
2022-09-01T13:44:31.678Z,0.73
2022-09-01T13:47:35.459Z,0.93
2022-09-01T13:51:16.638Z,0.80
2022-09-01T13:54:21.317Z,0.95
2022-09-01T13:57:25.685Z,0.68
2022-09-01T14:00:31.990Z,0.73
2022-09-01T14:03:34.611Z,0.90
2022-09-01T14:06:41.181Z,0.80
2022-09-01T14:09:43.753Z,0.90
2022-09-01T14:12:47.890Z,0.70
2022-09-01T14:15:53.297Z,0.70
2022-09-01T14:18:55.958Z,0.70
2022-09-01T14:21:58.538Z,0.70
2022-09-01T14:25:02.101Z,0.60
2022-09-01T14:28:06.469Z,0.70
2022-09-01T14:31:10.261Z,1.00
2022-09-01T14:34:12.943Z,0.98
2022-09-01T14:37:15.719Z,0.70
2022-09-01T14:40:20.142Z,0.80
2022-09-01T14:43:25.426Z,0.60
2022-09-01T14:46:30.395Z,0.73
2022-09-01T14:49:35.822Z,1.15
2022-09-01T14:52:38.920Z,0.90
2022-09-01T14:55:43.986Z,0.70
2022-09-01T14:58:48.542Z,1.08
2022-09-01T15:01:51.159Z,0.80
2022-09-01T15:04:53.874Z,0.85
2022-09-01T15:07:56.681Z,0.63
2022-09-01T15:11:01.261Z,0.80
2022-09-01T15:14:05.461Z,0.80
2022-09-01T15:17:09.009Z,1.00
2022-09-01T15:20:28.926Z,0.80
2022-09-01T15:23:31.626Z,0.63
2022-09-01T15:26:34.830Z,0.70
2022-09-01T15:29:46.161Z,0.80
2022-09-01T15:32:50.858Z,0.60
2022-09-01T15:35:53.847Z,0.77
2022-09-01T15:38:58.637Z,0.80
2022-09-01T15:42:01.943Z,0.73
2022-09-01T15:45:09.666Z,0.70
2022-09-01T15:48:12.233Z,0.70
2022-09-01T15:51:30.910Z,0.80
2022-09-01T15:54:38.619Z,0.80
2022-09-01T15:57:41.193Z,0.80
2022-09-01T16:00:45.449Z,0.73
2022-09-01T16:03:48.131Z,0.90
2022-09-01T16:06:52.567Z,1.23
2022-09-01T16:09:57.917Z,0.80
2022-09-01T16:13:01.458Z,0.70
2022-09-01T16:16:14.669Z,1.00
2022-09-01T16:19:29.827Z,1.30
2022-09-01T16:22:36.724Z,1.37
2022-09-01T16:25:39.340Z,1.07
2022-09-01T16:28:45.441Z,1.10
2022-09-01T16:31:56.293Z,0.70
2022-09-01T16:34:59.138Z,0.80
2022-09-01T16:38:12.209Z,0.80
2022-09-01T16:41:36.203Z,0.80
2022-09-01T16:44:51.065Z,0.80
2022-09-01T16:48:05.282Z,0.80
2022-09-01T16:51:14.853Z,0.80
2022-09-01T16:54:26.072Z,0.80
2022-09-01T16:57:41.214Z,1.10
2022-09-01T17:00:52.600Z,0.80
2022-09-01T17:04:14.542Z,1.03
2022-09-01T17:07:26.411Z,0.80
2022-09-01T17:10:41.746Z,0.63
2022-09-01T17:13:47.473Z,0.80
2022-09-01T17:16:51.081Z,0.80
2022-09-01T17:19:55.613Z,0.80
2022-09-01T17:23:00.494Z,0.90
2022-09-01T17:26:07.364Z,0.80
2022-09-01T17:29:24.525Z,1.13
2022-09-01T17:32:52.729Z,1.00
2022-09-01T17:36:11.291Z,0.80
2022-09-01T17:39:29.780Z,0.70
2022-09-01T17:42:36.542Z,0.70
2022-09-01T17:45:51.337Z,0.80
2022-09-01T17:48:58.987Z,0.70
2022-09-01T17:52:14.532Z,0.83
2022-09-01T17:55:37.383Z,0.77
2022-09-01T17:58:49.966Z,0.70
2022-09-01T18:02:02.610Z,0.90
2022-09-01T18:05:11.714Z,0.80
2022-09-01T18:08:30.598Z,0.80
2022-09-01T18:11:40.149Z,0.90
2022-09-01T18:14:53.048Z,0.80
2022-09-01T18:18:05.213Z,1.00
2022-09-01T18:21:11.441Z,0.90
2022-09-01T18:24:19.477Z,1.00
2022-09-01T18:27:24.989Z,0.90
2022-09-01T18:30:52.105Z,0.80
2022-09-01T18:34:09.903Z,1.20
2022-09-01T18:37:20.055Z,1.30
2022-09-01T18:40:30.908Z,0.80
2022-09-01T18:43:37.550Z,1.00
2022-09-01T18:46:49.478Z,1.10
2022-09-01T18:50:04.025Z,1.00
2022-09-01T18:53:18.998Z,0.90
2022-09-01T18:56:37.636Z,1.00
2022-09-01T18:59:54.733Z,0.83
2022-09-01T19:03:09.899Z,1.00
2022-09-01T19:06:26.862Z,1.30
2022-09-01T19:09:33.166Z,1.00
2022-09-01T19:12:44.361Z,1.23
2022-09-01T19:15:56.223Z,1.13
2022-09-01T19:19:08.250Z,1.37
2022-09-01T19:22:17.288Z,1.03
2022-09-01T19:25:36.516Z,1.50
2022-09-01T19:28:44.939Z,1.50
2022-09-01T19:31:50.919Z,1.10
2022-09-01T19:34:57.563Z,1.00
2022-09-01T19:38:00.181Z,1.00
2022-09-01T19:41:10.722Z,1.20
2022-09-01T19:44:27.981Z,1.00
2022-09-01T19:47:38.191Z,0.87
2022-09-01T19:50:47.721Z,1.10
2022-09-01T19:53:58.069Z,1.00
2022-09-01T19:57:05.793Z,0.90
2022-09-01T20:00:14.250Z,1.50
2022-09-01T20:03:23.079Z,1.50
2022-09-01T20:06:33.414Z,1.27
2022-09-01T20:09:42.034Z,1.20
2022-09-01T20:12:51.356Z,1.40
2022-09-01T20:16:04.151Z,1.40
2022-09-01T20:19:11.918Z,1.30
2022-09-01T20:22:23.716Z,1.20
2022-09-01T20:25:38.339Z,1.10
2022-09-01T20:28:48.619Z,1.40
2022-09-01T20:31:56.411Z,1.23
2022-09-01T20:35:04.621Z,1.07
2022-09-01T20:38:35.397Z,1.27
2022-09-01T20:41:45.379Z,0.90
2022-09-01T20:44:53.600Z,0.93
2022-09-01T20:47:59.151Z,1.07
2022-09-01T20:51:08.583Z,1.10
2022-09-01T20:54:25.363Z,1.10
2022-09-01T20:57:36.734Z,1.00
2022-09-01T21:00:49.728Z,1.10
2022-09-01T21:04:04.124Z,1.43
2022-09-01T21:07:14.714Z,1.57
2022-09-01T21:10:25.217Z,1.50
2022-09-01T21:13:45.766Z,1.80
2022-09-01T21:16:58.485Z,1.80
2022-09-01T21:20:11.879Z,2.40
2022-09-01T21:23:16.104Z,2.30
2022-09-01T21:26:18.832Z,2.80
2022-09-01T21:29:33.051Z,2.97
2022-09-01T21:32:36.254Z,2.70
2022-09-01T21:35:40.241Z,2.77
2022-09-01T21:38:43.378Z,2.83
2022-09-01T21:41:46.729Z,3.23
2022-09-01T21:44:49.713Z,3.73
2022-09-01T21:47:53.282Z,3.37
2022-09-01T21:50:57.257Z,3.50
2022-09-01T21:53:59.854Z,3.13
2022-09-01T21:57:02.453Z,2.53
2022-09-01T22:00:07.244Z,2.33
2022-09-01T22:03:11.233Z,2.40
2022-09-01T22:06:15.252Z,2.30
2022-09-01T22:09:21.181Z,1.83
2022-09-01T22:12:24.465Z,1.60
2022-09-01T22:15:27.561Z,1.63
2022-09-01T22:18:30.312Z,1.80
2022-09-01T22:21:34.595Z,2.10
2022-09-01T22:24:37.218Z,1.80
2022-09-01T22:27:40.005Z,1.90
2022-09-01T22:30:46.877Z,1.70
2022-09-01T22:33:49.937Z,1.73
2022-09-01T22:36:53.913Z,1.60
2022-09-01T22:39:56.580Z,1.37
2022-09-01T22:42:59.181Z,1.40
2022-09-01T22:46:01.864Z,1.30
2022-09-01T22:49:04.756Z,1.27
2022-09-01T22:52:08.743Z,1.40
2022-09-01T22:55:11.718Z,1.10
2022-09-01T22:58:15.145Z,1.00
2022-09-01T23:01:21.500Z,1.10
2022-09-01T23:04:24.901Z,1.03
2022-09-01T23:07:28.978Z,1.03
2022-09-01T23:10:32.615Z,1.10
2022-09-01T23:13:36.380Z,0.90
2022-09-01T23:16:39.152Z,1.20
2022-09-01T23:19:41.832Z,1.07
2022-09-01T23:22:46.578Z,0.97
2022-09-01T23:25:52.970Z,1.10
2022-09-01T23:28:56.600Z,1.07
2022-09-01T23:31:59.298Z,1.03
2022-09-01T23:35:02.235Z,1.20
2022-09-01T23:38:06.159Z,0.90
2022-09-01T23:41:13.825Z,1.10
2022-09-01T23:44:16.724Z,1.00
2022-09-01T23:47:19.583Z,1.17
2022-09-01T23:50:22.183Z,0.87
2022-09-01T23:53:29.010Z,1.00
2022-09-01T23:56:31.871Z,0.90
2022-09-01T23:59:34.523Z,1.00
